createdAt,value
2023-03-07T00:00:44.386Z,1.22
2023-03-07T00:03:15.046Z,1.13
2023-03-07T00:05:41.897Z,1.17
2023-03-07T00:08:08.871Z,1.25
2023-03-07T00:10:35.457Z,1.25
2023-03-07T00:13:02.201Z,1.11
2023-03-07T00:15:28.642Z,1.21
2023-03-07T00:17:55.066Z,1.02
2023-03-07T00:20:21.510Z,1.18
2023-03-07T00:22:47.969Z,1.07
2023-03-07T00:25:15.113Z,1.24
2023-03-07T00:27:41.867Z,1.24
2023-03-07T00:30:10.226Z,1.22
2023-03-07T00:32:36.721Z,1.23
2023-03-07T00:35:03.299Z,1.35
2023-03-07T00:37:30.834Z,1.40
2023-03-07T00:39:57.427Z,1.34
2023-03-07T00:42:24.248Z,1.47
2023-03-07T00:44:50.751Z,1.49
2023-03-07T00:47:17.252Z,1.34
2023-03-07T00:49:43.739Z,1.55
2023-03-07T00:52:10.218Z,1.53
2023-03-07T00:54:36.854Z,1.58
2023-03-07T00:57:03.430Z,1.43
2023-03-07T00:59:29.894Z,1.51
2023-03-07T01:01:56.356Z,1.63
2023-03-07T01:04:23.077Z,1.54
2023-03-07T01:06:50.495Z,1.63
2023-03-07T01:09:16.942Z,1.44
2023-03-07T01:11:43.572Z,1.65
2023-03-07T01:14:10.314Z,1.60
2023-03-07T01:16:38.234Z,1.63
2023-03-07T01:19:07.575Z,1.60
2023-03-07T01:21:37.704Z,1.61
2023-03-07T01:24:08.403Z,1.58
2023-03-07T01:26:35.140Z,1.60
2023-03-07T01:29:03.454Z,1.55
2023-03-07T01:31:30.691Z,1.54
2023-03-07T01:33:57.268Z,1.56
2023-03-07T01:36:30.367Z,1.56
2023-03-07T01:39:00.985Z,1.52
2023-03-07T01:41:32.929Z,1.51
2023-03-07T01:44:00.449Z,1.52
2023-03-07T01:46:37.459Z,1.54
2023-03-07T01:49:21.500Z,1.31
2023-03-07T01:51:52.963Z,1.52
2023-03-07T01:54:20.420Z,1.49
2023-03-07T01:56:47.741Z,1.48
2023-03-07T01:59:18.067Z,1.53
2023-03-07T02:01:44.826Z,1.34
2023-03-07T02:04:18.901Z,1.50
2023-03-07T02:06:45.452Z,1.55
2023-03-07T02:09:16.107Z,1.45
2023-03-07T02:11:43.614Z,1.48
2023-03-07T02:14:10.829Z,1.56
2023-03-07T02:16:38.639Z,1.57
2023-03-07T02:19:14.960Z,1.42
2023-03-07T02:22:00.350Z,1.58
2023-03-07T02:24:35.889Z,1.50
2023-03-07T02:27:02.443Z,1.60
2023-03-07T02:29:28.978Z,1.59
2023-03-07T02:31:55.425Z,1.57
2023-03-07T02:34:24.967Z,1.55
2023-03-07T02:37:05.207Z,1.57
2023-03-07T02:39:31.985Z,1.57
2023-03-07T02:42:02.119Z,1.60
2023-03-07T02:44:28.638Z,1.61
2023-03-07T02:46:55.146Z,1.59
2023-03-07T02:49:21.682Z,1.58
2023-03-07T02:51:48.239Z,1.57
2023-03-07T02:54:14.790Z,1.47
2023-03-07T02:56:41.907Z,1.59
2023-03-07T02:59:08.788Z,1.58
2023-03-07T03:01:35.367Z,1.59
2023-03-07T03:04:01.830Z,1.41
2023-03-07T03:06:28.441Z,1.45
2023-03-07T03:08:54.957Z,1.41
2023-03-07T03:11:21.383Z,1.61
2023-03-07T03:13:47.974Z,1.55
2023-03-07T03:16:14.519Z,1.53
2023-03-07T03:18:41.069Z,1.61
2023-03-07T03:21:11.627Z,1.63
2023-03-07T03:23:38.310Z,1.63
2023-03-07T03:26:07.702Z,1.57
2023-03-07T03:28:35.266Z,1.54
2023-03-07T03:31:06.956Z,1.51
2023-03-07T03:33:33.549Z,1.66
2023-03-07T03:36:01.334Z,1.61
2023-03-07T03:38:28.007Z,1.70
2023-03-07T03:40:54.547Z,1.63
2023-03-07T03:43:21.123Z,1.69
2023-03-07T03:45:57.781Z,1.70
2023-03-07T03:48:24.806Z,1.70
2023-03-07T03:50:51.442Z,1.55
2023-03-07T03:53:17.944Z,1.69
2023-03-07T03:55:44.478Z,1.57
2023-03-07T03:58:11.197Z,1.62
2023-03-07T04:00:37.777Z,1.70
2023-03-07T04:03:04.822Z,1.72
2023-03-07T04:05:34.070Z,1.72
2023-03-07T04:08:01.005Z,1.71
2023-03-07T04:10:27.533Z,1.56
2023-03-07T04:12:54.039Z,1.53
2023-03-07T04:15:20.605Z,1.73
2023-03-07T04:17:47.079Z,1.53
2023-03-07T04:20:17.398Z,1.72
2023-03-07T04:22:44.225Z,1.61
2023-03-07T04:25:10.861Z,1.72
2023-03-07T04:27:37.361Z,1.74
2023-03-07T04:30:04.249Z,1.74
2023-03-07T04:32:30.795Z,1.69
2023-03-07T04:34:57.382Z,1.74
2023-03-07T04:37:23.956Z,1.75
2023-03-07T04:39:50.456Z,1.80
2023-03-07T04:42:16.999Z,1.62
2023-03-07T04:44:43.486Z,1.71
2023-03-07T04:47:10.021Z,1.86
2023-03-07T04:49:36.586Z,1.91
2023-03-07T04:52:03.378Z,1.79
2023-03-07T04:54:30.058Z,1.77
2023-03-07T04:56:56.564Z,1.89
2023-03-07T04:59:23.087Z,1.90
2023-03-07T05:01:49.539Z,1.92
2023-03-07T05:04:16.115Z,1.92
2023-03-07T05:06:42.624Z,1.92
2023-03-07T05:09:09.276Z,1.92
2023-03-07T05:11:35.854Z,1.92
2023-03-07T05:14:02.463Z,1.95
2023-03-07T05:16:29.035Z,1.96
2023-03-07T05:18:55.486Z,1.97
2023-03-07T05:21:21.939Z,1.97
2023-03-07T05:23:48.446Z,1.96
2023-03-07T05:26:15.051Z,1.84
2023-03-07T05:28:41.595Z,1.84
2023-03-07T05:31:08.191Z,1.95
2023-03-07T05:33:34.807Z,1.94
2023-03-07T05:36:02.108Z,1.91
2023-03-07T05:38:28.715Z,1.92
2023-03-07T05:40:55.212Z,1.49
2023-03-07T05:43:21.769Z,1.96
2023-03-07T05:45:48.296Z,1.87
2023-03-07T05:48:14.814Z,1.96
2023-03-07T05:50:42.591Z,1.84
2023-03-07T05:53:09.197Z,1.97
2023-03-07T05:55:35.707Z,1.98
2023-03-07T05:58:02.342Z,2.00
2023-03-07T06:00:28.951Z,1.86
2023-03-07T06:02:55.518Z,1.90
2023-03-07T06:05:23.272Z,2.05
2023-03-07T06:07:51.391Z,2.09
2023-03-07T06:10:18.069Z,1.96
2023-03-07T06:12:44.778Z,2.12
2023-03-07T06:15:11.502Z,2.05
2023-03-07T06:17:39.743Z,2.13
2023-03-07T06:20:07.742Z,2.08
2023-03-07T06:22:34.770Z,2.17
2023-03-07T06:25:01.300Z,2.21
2023-03-07T06:27:27.847Z,2.21
2023-03-07T06:29:54.335Z,2.26
2023-03-07T06:32:21.017Z,2.29
2023-03-07T06:34:47.589Z,2.13
2023-03-07T06:37:14.077Z,2.33
2023-03-07T06:39:40.652Z,2.26
2023-03-07T06:42:07.200Z,2.38
2023-03-07T06:44:33.792Z,2.43
2023-03-07T06:47:00.465Z,2.44
2023-03-07T06:49:26.978Z,2.44
2023-03-07T06:51:53.524Z,2.54
2023-03-07T06:54:20.123Z,2.52
2023-03-07T06:56:46.891Z,2.63
2023-03-07T06:59:13.563Z,2.63
2023-03-07T07:01:40.178Z,2.72
2023-03-07T07:04:06.755Z,2.57
2023-03-07T07:06:33.822Z,2.81
2023-03-07T07:09:00.386Z,2.90
2023-03-07T07:11:27.177Z,2.95
2023-03-07T07:13:53.977Z,3.01
2023-03-07T07:16:20.725Z,3.03
2023-03-07T07:18:47.439Z,3.12
2023-03-07T07:21:14.100Z,3.16
2023-03-07T07:23:41.419Z,3.20
2023-03-07T07:26:08.555Z,3.18
2023-03-07T07:28:35.057Z,3.09
2023-03-07T07:31:01.722Z,3.29
2023-03-07T07:33:28.138Z,3.17
2023-03-07T07:35:54.787Z,3.22
2023-03-07T07:38:21.318Z,3.20
2023-03-07T07:40:47.847Z,3.39
2023-03-07T07:43:15.949Z,3.26
2023-03-07T07:45:43.122Z,3.37
2023-03-07T07:48:09.836Z,3.38
2023-03-07T07:50:36.580Z,3.46
2023-03-07T07:53:03.164Z,3.51
2023-03-07T07:55:29.640Z,3.53
2023-03-07T07:57:56.191Z,3.55
2023-03-07T08:00:22.805Z,3.60
2023-03-07T08:02:52.472Z,3.47
2023-03-07T08:05:20.596Z,3.71
2023-03-07T08:07:47.371Z,3.70
2023-03-07T08:10:17.670Z,3.72
2023-03-07T08:12:45.109Z,3.85
2023-03-07T08:15:12.160Z,3.91
2023-03-07T08:17:38.699Z,3.83
2023-03-07T08:20:09.606Z,4.05
2023-03-07T08:22:39.670Z,4.16
2023-03-07T08:25:07.885Z,4.29
2023-03-07T08:27:34.776Z,4.39
2023-03-07T08:30:01.297Z,4.45
2023-03-07T08:32:28.477Z,4.39
2023-03-07T08:34:55.040Z,4.43
2023-03-07T08:37:21.633Z,4.59
2023-03-07T08:39:48.280Z,4.39
2023-03-07T08:42:14.871Z,4.54
2023-03-07T08:44:41.416Z,4.61
2023-03-07T08:47:08.595Z,4.61
2023-03-07T08:49:35.081Z,4.62
2023-03-07T08:52:01.557Z,4.53
2023-03-07T08:54:28.338Z,4.58
2023-03-07T08:56:54.984Z,4.36
2023-03-07T08:59:21.611Z,4.65
2023-03-07T09:01:48.156Z,4.51
2023-03-07T09:04:14.700Z,4.68
2023-03-07T09:06:41.279Z,4.66
2023-03-07T09:09:07.923Z,4.67
2023-03-07T09:11:34.443Z,4.69
2023-03-07T09:14:00.897Z,4.59
2023-03-07T09:16:27.531Z,4.71
2023-03-07T09:18:54.624Z,4.76
2023-03-07T09:21:21.215Z,4.72
2023-03-07T09:23:47.965Z,4.77
2023-03-07T09:26:14.775Z,4.80
2023-03-07T09:28:41.741Z,4.87
2023-03-07T09:31:13.031Z,4.96
2023-03-07T09:33:40.030Z,5.00
2023-03-07T09:36:07.961Z,5.18
2023-03-07T09:38:34.749Z,5.20
2023-03-07T09:41:33.611Z,5.26
2023-03-07T09:44:22.044Z,5.31
2023-03-07T09:47:10.600Z,5.30
2023-03-07T09:49:53.055Z,5.24
2023-03-07T09:52:30.656Z,5.26
2023-03-07T09:55:00.189Z,5.18
2023-03-07T09:57:31.478Z,5.26
2023-03-07T10:00:07.700Z,5.22
2023-03-07T10:03:00.599Z,5.34
2023-03-07T10:05:31.529Z,5.36
2023-03-07T10:07:58.654Z,5.22
2023-03-07T10:10:31.424Z,5.34
2023-03-07T10:13:15.542Z,5.37
2023-03-07T10:15:52.597Z,5.38
2023-03-07T10:18:53.382Z,5.44
2023-03-07T10:21:38.910Z,5.48
2023-03-07T10:24:20.229Z,5.57
2023-03-07T10:26:51.211Z,5.70
2023-03-07T10:29:20.041Z,5.69
2023-03-07T10:31:55.424Z,5.99
2023-03-07T10:34:32.516Z,6.15
2023-03-07T10:37:09.106Z,6.13
2023-03-07T10:39:52.376Z,6.30
2023-03-07T10:42:22.490Z,6.40
2023-03-07T10:44:53.772Z,6.34
2023-03-07T10:47:25.828Z,6.62
2023-03-07T10:50:00.538Z,6.82
2023-03-07T10:52:39.744Z,7.11
2023-03-07T10:55:37.752Z,7.24
2023-03-07T10:58:20.038Z,7.30
2023-03-07T11:01:01.625Z,7.38
2023-03-07T11:03:51.108Z,7.60
2023-03-07T11:06:50.462Z,7.82
2023-03-07T11:09:34.527Z,7.90
2023-03-07T11:12:10.301Z,7.99
2023-03-07T11:15:10.758Z,8.03
2023-03-07T11:17:45.570Z,7.96
2023-03-07T11:20:30.356Z,7.92
2023-03-07T11:23:30.832Z,7.88
2023-03-07T11:26:14.396Z,7.83
2023-03-07T11:28:41.438Z,7.70
2023-03-07T11:31:29.459Z,7.70
2023-03-07T11:34:14.728Z,7.71
2023-03-07T11:36:44.104Z,7.67
2023-03-07T11:39:24.742Z,7.68
2023-03-07T11:42:04.008Z,7.68
2023-03-07T11:44:36.103Z,7.65
2023-03-07T11:47:39.387Z,7.69
2023-03-07T11:50:26.887Z,7.73
2023-03-07T11:53:12.103Z,7.80
2023-03-07T11:55:48.857Z,7.80
2023-03-07T11:58:37.126Z,7.76
2023-03-07T12:01:13.127Z,7.83
2023-03-07T12:03:52.531Z,7.92
2023-03-07T12:07:10.956Z,8.11
2023-03-07T12:09:45.218Z,8.30
2023-03-07T12:12:47.308Z,8.41
2023-03-07T12:15:31.109Z,8.28
2023-03-07T12:18:28.127Z,8.31
2023-03-07T12:21:13.330Z,8.23
2023-03-07T12:23:44.684Z,7.97
2023-03-07T12:26:36.393Z,8.05
2023-03-07T12:29:26.552Z,7.81
2023-03-07T12:31:57.006Z,8.00
2023-03-07T12:34:43.306Z,7.90
2023-03-07T12:37:20.821Z,7.90
2023-03-07T12:40:01.637Z,7.94
2023-03-07T12:42:53.146Z,8.19
2023-03-07T12:45:27.451Z,8.17
2023-03-07T12:47:54.194Z,8.17
2023-03-07T12:50:44.956Z,8.12
2023-03-07T12:53:29.588Z,7.94
2023-03-07T12:56:11.499Z,7.97
2023-03-07T12:58:58.549Z,7.76
2023-03-07T13:01:32.751Z,7.82
2023-03-07T13:04:05.365Z,7.79
2023-03-07T13:06:32.961Z,7.78
2023-03-07T13:09:01.725Z,7.86
2023-03-07T13:11:34.397Z,7.81
2023-03-07T13:14:02.449Z,7.79
2023-03-07T13:16:43.968Z,7.82
2023-03-07T13:19:35.759Z,7.82
2023-03-07T13:22:04.222Z,7.64
2023-03-07T13:24:40.203Z,7.58
2023-03-07T13:27:27.891Z,7.50
2023-03-07T13:30:12.787Z,7.53
2023-03-07T13:32:48.672Z,7.46
2023-03-07T13:35:24.652Z,7.53
2023-03-07T13:38:03.621Z,7.54
2023-03-07T13:40:37.031Z,7.65
2023-03-07T13:43:05.713Z,7.78
2023-03-07T13:45:38.378Z,7.94
2023-03-07T13:48:12.870Z,7.85
2023-03-07T13:50:59.388Z,7.80
2023-03-07T13:53:31.453Z,7.90
2023-03-07T13:56:04.646Z,7.91
2023-03-07T13:58:37.864Z,7.85
2023-03-07T14:01:12.546Z,7.93
2023-03-07T14:03:42.659Z,7.86
2023-03-07T14:06:20.552Z,7.89
2023-03-07T14:08:48.068Z,7.94
2023-03-07T14:11:32.634Z,7.78
2023-03-07T14:14:17.169Z,7.77
2023-03-07T14:16:56.721Z,7.50
2023-03-07T14:19:42.325Z,7.50
2023-03-07T14:22:23.705Z,7.46
2023-03-07T14:25:14.925Z,7.35
2023-03-07T14:28:01.529Z,7.31
2023-03-07T14:30:30.707Z,7.22
2023-03-07T14:32:58.170Z,7.22
2023-03-07T14:35:43.049Z,7.27
2023-03-07T14:38:21.058Z,7.24
2023-03-07T14:40:53.578Z,7.44
2023-03-07T14:43:30.296Z,7.46
2023-03-07T14:46:38.218Z,7.47
2023-03-07T14:49:33.908Z,7.41
2023-03-07T14:52:03.166Z,7.26
2023-03-07T14:54:32.649Z,7.31
2023-03-07T14:57:00.628Z,7.25
2023-03-07T14:59:29.344Z,7.31
2023-03-07T15:01:57.129Z,7.29
2023-03-07T15:04:31.675Z,7.25
2023-03-07T15:07:01.221Z,7.20
2023-03-07T15:09:28.480Z,7.07
2023-03-07T15:12:00.981Z,7.15
2023-03-07T15:14:48.608Z,7.19
2023-03-07T15:17:21.160Z,7.19
2023-03-07T15:19:58.210Z,7.12
2023-03-07T15:22:28.954Z,7.11
2023-03-07T15:24:55.768Z,7.11
2023-03-07T15:27:27.133Z,7.04
2023-03-07T15:29:54.363Z,7.00
2023-03-07T15:32:33.211Z,6.97
2023-03-07T15:35:02.664Z,6.90
2023-03-07T15:37:32.942Z,6.84
2023-03-07T15:40:28.869Z,6.69
2023-03-07T15:43:04.852Z,6.69
2023-03-07T15:45:38.484Z,6.61
2023-03-07T15:48:31.333Z,6.36
2023-03-07T15:51:00.386Z,6.49
2023-03-07T15:53:40.516Z,6.45
2023-03-07T15:56:20.892Z,6.06
2023-03-07T15:58:47.624Z,5.45
2023-03-07T16:01:22.012Z,4.99
2023-03-07T16:04:06.458Z,4.49
2023-03-07T16:06:42.620Z,4.39
2023-03-07T16:09:14.396Z,4.20
2023-03-07T16:11:42.125Z,3.99
2023-03-07T16:14:22.035Z,3.73
2023-03-07T16:16:48.901Z,3.50
2023-03-07T16:19:15.461Z,3.30
2023-03-07T16:21:41.907Z,3.25
2023-03-07T16:24:08.548Z,3.30
2023-03-07T16:26:35.180Z,3.20
2023-03-07T16:29:02.081Z,3.09
2023-03-07T16:31:28.733Z,2.98
2023-03-07T16:33:57.692Z,2.88
2023-03-07T16:36:24.247Z,2.81
2023-03-07T16:38:50.800Z,2.73
2023-03-07T16:41:20.644Z,2.61
2023-03-07T16:43:54.504Z,2.45
2023-03-07T16:46:21.468Z,2.45
2023-03-07T16:48:48.034Z,2.40
2023-03-07T16:51:19.431Z,2.29
2023-03-07T16:53:47.196Z,2.46
2023-03-07T16:56:37.582Z,2.47
2023-03-07T16:59:04.674Z,2.41
2023-03-07T17:01:31.188Z,2.34
2023-03-07T17:03:57.799Z,2.39
2023-03-07T17:06:37.270Z,2.35
2023-03-07T17:09:12.621Z,2.41
2023-03-07T17:11:41.629Z,2.45
2023-03-07T17:14:08.917Z,2.43
2023-03-07T17:16:39.328Z,2.47
2023-03-07T17:19:06.786Z,2.47
2023-03-07T17:21:33.570Z,2.46
2023-03-07T17:24:00.374Z,2.34
2023-03-07T17:26:32.819Z,2.36
2023-03-07T17:29:03.610Z,2.19
2023-03-07T17:31:30.796Z,2.21
2023-03-07T17:33:57.446Z,2.22
2023-03-07T17:36:23.991Z,2.25
2023-03-07T17:38:50.498Z,2.22
2023-03-07T17:41:17.594Z,2.19
2023-03-07T17:43:44.131Z,1.99
2023-03-07T17:46:12.452Z,2.19
2023-03-07T17:48:39.306Z,2.01
2023-03-07T17:51:12.431Z,2.02
2023-03-07T17:53:39.017Z,1.99
2023-03-07T17:56:07.740Z,2.06
2023-03-07T17:58:34.291Z,2.03
2023-03-07T18:01:00.813Z,2.01
2023-03-07T18:03:27.367Z,1.84
2023-03-07T18:05:54.051Z,2.00
2023-03-07T18:08:20.551Z,1.89
2023-03-07T18:10:47.075Z,2.00
2023-03-07T18:13:18.985Z,2.01
2023-03-07T18:15:46.614Z,1.86
2023-03-07T18:18:13.333Z,1.86
2023-03-07T18:20:40.274Z,1.95
2023-03-07T18:23:07.516Z,1.92
2023-03-07T18:25:34.018Z,1.94
2023-03-07T18:28:04.389Z,1.99
2023-03-07T18:30:31.629Z,1.97
2023-03-07T18:32:58.029Z,1.96
2023-03-07T18:35:25.067Z,2.02
2023-03-07T18:37:51.639Z,1.92
2023-03-07T18:40:21.986Z,2.06
2023-03-07T18:42:48.560Z,2.09
2023-03-07T18:45:15.168Z,2.08
2023-03-07T18:47:41.644Z,1.83
2023-03-07T18:50:09.410Z,2.00
2023-03-07T18:52:35.896Z,2.06
2023-03-07T18:55:02.443Z,2.16
2023-03-07T18:57:28.936Z,2.12
2023-03-07T18:59:55.473Z,2.29
2023-03-07T19:02:21.967Z,2.23
2023-03-07T19:04:48.527Z,2.28
2023-03-07T19:07:19.277Z,2.34
2023-03-07T19:09:54.582Z,2.22
2023-03-07T19:12:23.517Z,2.16
2023-03-07T19:14:52.281Z,2.23
2023-03-07T19:17:18.943Z,2.18
2023-03-07T19:19:47.055Z,2.20
2023-03-07T19:22:13.827Z,2.21
2023-03-07T19:24:40.870Z,2.22
2023-03-07T19:27:07.500Z,2.25
2023-03-07T19:29:34.877Z,2.25
2023-03-07T19:32:01.473Z,2.30
2023-03-07T19:34:27.927Z,2.18
2023-03-07T19:36:54.677Z,2.23
2023-03-07T19:39:21.225Z,2.19
2023-03-07T19:41:50.593Z,2.22
2023-03-07T19:44:17.583Z,2.19
2023-03-07T19:46:46.429Z,2.15
2023-03-07T19:49:16.764Z,2.13
2023-03-07T19:51:43.325Z,2.00
2023-03-07T19:54:13.444Z,2.12
2023-03-07T19:56:39.939Z,2.09
2023-03-07T19:59:07.549Z,2.10
2023-03-07T20:01:34.504Z,2.07
2023-03-07T20:04:01.806Z,2.03
2023-03-07T20:06:29.985Z,2.08
2023-03-07T20:08:57.454Z,2.12
2023-03-07T20:11:31.907Z,2.08
2023-03-07T20:14:00.362Z,2.13
2023-03-07T20:16:29.203Z,2.10
2023-03-07T20:19:00.753Z,2.10
2023-03-07T20:21:28.930Z,2.12
2023-03-07T20:23:59.223Z,2.00
2023-03-07T20:26:29.812Z,2.06
2023-03-07T20:28:56.913Z,2.09
2023-03-07T20:31:24.091Z,1.96
2023-03-07T20:33:51.012Z,2.07
2023-03-07T20:36:36.274Z,2.14
2023-03-07T20:39:07.684Z,2.05
2023-03-07T20:41:34.414Z,1.89
2023-03-07T20:44:04.002Z,1.88
2023-03-07T20:46:31.236Z,2.02
2023-03-07T20:48:59.072Z,1.99
2023-03-07T20:51:28.508Z,1.97
2023-03-07T20:53:59.581Z,1.96
2023-03-07T20:56:27.886Z,1.95
2023-03-07T20:58:54.768Z,1.94
2023-03-07T21:01:22.381Z,1.91
2023-03-07T21:03:49.131Z,1.88
2023-03-07T21:06:16.421Z,1.85
2023-03-07T21:08:43.100Z,1.76
2023-03-07T21:11:15.478Z,1.81
2023-03-07T21:13:44.291Z,1.65
2023-03-07T21:16:13.841Z,1.81
2023-03-07T21:18:40.788Z,1.79
2023-03-07T21:21:13.218Z,1.70
2023-03-07T21:23:40.362Z,1.78
2023-03-07T21:26:12.424Z,1.80
2023-03-07T21:28:39.454Z,1.76
2023-03-07T21:31:27.156Z,1.66
2023-03-07T21:33:59.967Z,1.70
2023-03-07T21:36:27.260Z,1.63
2023-03-07T21:38:54.674Z,1.74
2023-03-07T21:41:27.639Z,1.59
2023-03-07T21:43:55.487Z,1.53
2023-03-07T21:46:22.952Z,1.63
2023-03-07T21:48:49.699Z,1.49
2023-03-07T21:51:16.821Z,1.65
2023-03-07T21:53:43.315Z,1.68
2023-03-07T21:56:14.129Z,1.68
2023-03-07T21:58:41.031Z,1.63
2023-03-07T22:01:13.043Z,1.70
2023-03-07T22:03:40.246Z,1.73
2023-03-07T22:06:08.291Z,1.51
2023-03-07T22:08:35.293Z,1.75
2023-03-07T22:11:03.495Z,1.77
2023-03-07T22:13:32.590Z,1.68
2023-03-07T22:16:00.530Z,1.73
2023-03-07T22:18:27.723Z,1.73
2023-03-07T22:20:55.207Z,1.71
2023-03-07T22:23:23.358Z,1.71
2023-03-07T22:25:49.925Z,1.51
2023-03-07T22:28:19.992Z,1.56
2023-03-07T22:30:47.500Z,1.56
2023-03-07T22:33:14.119Z,1.42
2023-03-07T22:35:40.959Z,1.64
2023-03-07T22:38:07.451Z,1.64
2023-03-07T22:40:34.084Z,1.63
2023-03-07T22:43:00.640Z,1.41
2023-03-07T22:45:27.142Z,1.58
2023-03-07T22:47:53.779Z,1.61
2023-03-07T22:50:20.420Z,1.63
2023-03-07T22:52:46.943Z,1.70
2023-03-07T22:55:13.461Z,1.46
2023-03-07T22:57:39.916Z,1.77
2023-03-07T23:00:07.035Z,1.69
2023-03-07T23:02:33.659Z,1.71
2023-03-07T23:05:00.182Z,1.74
2023-03-07T23:07:26.729Z,1.58
2023-03-07T23:09:53.183Z,1.70
2023-03-07T23:12:19.716Z,1.68
2023-03-07T23:14:46.274Z,1.69
2023-03-07T23:17:12.694Z,1.63
2023-03-07T23:19:39.437Z,1.66
2023-03-07T23:22:06.816Z,1.68
2023-03-07T23:24:33.403Z,1.55
2023-03-07T23:26:59.954Z,1.62
2023-03-07T23:29:26.506Z,1.61
2023-03-07T23:31:52.981Z,1.63
2023-03-07T23:34:20.637Z,1.64
2023-03-07T23:36:47.281Z,1.66
2023-03-07T23:39:15.216Z,1.71
2023-03-07T23:41:41.632Z,1.61
2023-03-07T23:44:08.172Z,1.74
2023-03-07T23:46:34.733Z,1.49
2023-03-07T23:49:01.374Z,1.73
2023-03-07T23:51:28.137Z,1.75
2023-03-07T23:53:54.684Z,1.71
2023-03-07T23:56:21.343Z,1.64
2023-03-07T23:58:52.038Z,1.53
